sensor_id;sensor_type;location;lat;lon;timestamp;P1;durP1;ratioP1;P2;durP2;ratioP2
25535;SDS011;13431;51.352;6.412;2022-08-30T00:01:23;6.07;;;3.35;;
25535;SDS011;13431;51.352;6.412;2022-08-30T00:03:54;4.75;;;2.65;;
25535;SDS011;13431;51.352;6.412;2022-08-30T00:06:25;5.75;;;2.88;;
25535;SDS011;13431;51.352;6.412;2022-08-30T00:08:54;7.85;;;3.47;;
25535;SDS011;13431;51.352;6.412;2022-08-30T00:11:23;6.28;;;3.10;;
25535;SDS011;13431;51.352;6.412;2022-08-30T00:13:53;4.45;;;3.03;;
25535;SDS011;13431;51.352;6.412;2022-08-30T00:16:25;7.22;;;3.13;;
25535;SDS011;13431;51.352;6.412;2022-08-30T00:18:53;7.47;;;3.28;;
25535;SDS011;13431;51.352;6.412;2022-08-30T00:21:21;8.45;;;3.30;;
25535;SDS011;13431;51.352;6.412;2022-08-30T00:23:49;10.15;;;3.92;;
25535;SDS011;13431;51.352;6.412;2022-08-30T00:26:16;9.05;;;4.30;;
25535;SDS011;13431;51.352;6.412;2022-08-30T00:28:44;6.63;;;3.10;;
25535;SDS011;13431;51.352;6.412;2022-08-30T00:31:14;4.32;;;3.78;;
25535;SDS011;13431;51.352;6.412;2022-08-30T00:33:41;5.47;;;3.20;;
25535;SDS011;13431;51.352;6.412;2022-08-30T00:36:09;5.03;;;3.30;;
25535;SDS011;13431;51.352;6.412;2022-08-30T00:38:36;8.45;;;3.55;;
25535;SDS011;13431;51.352;6.412;2022-08-30T00:41:04;6.30;;;2.97;;
25535;SDS011;13431;51.352;6.412;2022-08-30T00:43:32;6.75;;;3.20;;
25535;SDS011;13431;51.352;6.412;2022-08-30T00:46:03;5.25;;;2.83;;
25535;SDS011;13431;51.352;6.412;2022-08-30T00:48:38;4.13;;;3.10;;
25535;SDS011;13431;51.352;6.412;2022-08-30T00:51:08;8.40;;;3.50;;
25535;SDS011;13431;51.352;6.412;2022-08-30T00:53:39;6.82;;;3.20;;
25535;SDS011;13431;51.352;6.412;2022-08-30T00:56:11;5.30;;;3.85;;
25535;SDS011;13431;51.352;6.412;2022-08-30T00:58:41;7.50;;;3.50;;
25535;SDS011;13431;51.352;6.412;2022-08-30T01:01:12;4.68;;;3.58;;
25535;SDS011;13431;51.352;6.412;2022-08-30T01:03:41;6.03;;;3.20;;
25535;SDS011;13431;51.352;6.412;2022-08-30T01:06:09;5.20;;;3.30;;
25535;SDS011;13431;51.352;6.412;2022-08-30T01:08:38;7.50;;;3.47;;
25535;SDS011;13431;51.352;6.412;2022-08-30T01:11:05;5.78;;;3.20;;
25535;SDS011;13431;51.352;6.412;2022-08-30T01:13:33;7.18;;;3.15;;
25535;SDS011;13431;51.352;6.412;2022-08-30T01:16:01;5.65;;;3.72;;
25535;SDS011;13431;51.352;6.412;2022-08-30T01:18:30;8.85;;;4.20;;
25535;SDS011;13431;51.352;6.412;2022-08-30T01:21:00;7.28;;;3.80;;
25535;SDS011;13431;51.352;6.412;2022-08-30T01:23:49;4.60;;;3.20;;
25535;SDS011;13431;51.352;6.412;2022-08-30T01:26:19;5.45;;;2.88;;
25535;SDS011;13431;51.352;6.412;2022-08-30T01:28:49;4.57;;;3.65;;
25535;SDS011;13431;51.352;6.412;2022-08-30T01:31:20;5.82;;;3.42;;
25535;SDS011;13431;51.352;6.412;2022-08-30T01:33:48;9.82;;;3.88;;
25535;SDS011;13431;51.352;6.412;2022-08-30T01:36:16;6.25;;;3.28;;
25535;SDS011;13431;51.352;6.412;2022-08-30T01:38:49;5.15;;;3.35;;
25535;SDS011;13431;51.352;6.412;2022-08-30T01:41:23;4.70;;;3.50;;
25535;SDS011;13431;51.352;6.412;2022-08-30T01:43:54;5.70;;;3.57;;
25535;SDS011;13431;51.352;6.412;2022-08-30T01:46:23;4.18;;;2.90;;
25535;SDS011;13431;51.352;6.412;2022-08-30T01:48:54;5.05;;;3.13;;
25535;SDS011;13431;51.352;6.412;2022-08-30T01:51:24;5.80;;;3.55;;
25535;SDS011;13431;51.352;6.412;2022-08-30T01:53:52;4.07;;;2.47;;
25535;SDS011;13431;51.352;6.412;2022-08-30T01:56:20;6.60;;;3.55;;
25535;SDS011;13431;51.352;6.412;2022-08-30T01:58:48;8.00;;;3.65;;
25535;SDS011;13431;51.352;6.412;2022-08-30T02:01:17;5.20;;;3.45;;
25535;SDS011;13431;51.352;6.412;2022-08-30T02:03:47;3.65;;;3.03;;
25535;SDS011;13431;51.352;6.412;2022-08-30T02:06:17;4.78;;;3.40;;
25535;SDS011;13431;51.352;6.412;2022-08-30T02:08:45;3.30;;;3.00;;
25535;SDS011;13431;51.352;6.412;2022-08-30T02:11:13;3.40;;;3.10;;
25535;SDS011;13431;51.352;6.412;2022-08-30T02:13:42;3.88;;;2.95;;
25535;SDS011;13431;51.352;6.412;2022-08-30T02:16:12;6.47;;;3.00;;
25535;SDS011;13431;51.352;6.412;2022-08-30T02:18:42;3.85;;;3.13;;
25535;SDS011;13431;51.352;6.412;2022-08-30T02:21:10;4.70;;;2.95;;
25535;SDS011;13431;51.352;6.412;2022-08-30T02:23:39;7.22;;;3.45;;
25535;SDS011;13431;51.352;6.412;2022-08-30T02:26:06;4.78;;;3.03;;
25535;SDS011;13431;51.352;6.412;2022-08-30T02:28:34;4.47;;;3.05;;
25535;SDS011;13431;51.352;6.412;2022-08-30T02:31:16;7.88;;;3.25;;
25535;SDS011;13431;51.352;6.412;2022-08-30T02:33:48;6.57;;;3.40;;
25535;SDS011;13431;51.352;6.412;2022-08-30T02:36:17;8.50;;;3.10;;
25535;SDS011;13431;51.352;6.412;2022-08-30T02:38:46;5.53;;;3.28;;
25535;SDS011;13431;51.352;6.412;2022-08-30T02:41:15;6.35;;;3.30;;
25535;SDS011;13431;51.352;6.412;2022-08-30T02:43:43;4.40;;;3.00;;
25535;SDS011;13431;51.352;6.412;2022-08-30T02:46:10;6.22;;;3.38;;
25535;SDS011;13431;51.352;6.412;2022-08-30T02:48:38;4.60;;;3.05;;
25535;SDS011;13431;51.352;6.412;2022-08-30T02:51:07;3.17;;;2.70;;
25535;SDS011;13431;51.352;6.412;2022-08-30T02:53:38;6.72;;;3.03;;
25535;SDS011;13431;51.352;6.412;2022-08-30T02:56:07;4.72;;;2.97;;
25535;SDS011;13431;51.352;6.412;2022-08-30T02:58:35;5.78;;;3.30;;
25535;SDS011;13431;51.352;6.412;2022-08-30T03:01:03;4.70;;;3.20;;
25535;SDS011;13431;51.352;6.412;2022-08-30T03:03:31;6.50;;;3.40;;
25535;SDS011;13431;51.352;6.412;2022-08-30T03:05:59;6.80;;;3.15;;
25535;SDS011;13431;51.352;6.412;2022-08-30T03:08:29;2.70;;;2.50;;
25535;SDS011;13431;51.352;6.412;2022-08-30T03:11:01;5.10;;;3.28;;
25535;SDS011;13431;51.352;6.412;2022-08-30T03:13:29;3.85;;;2.67;;
25535;SDS011;13431;51.352;6.412;2022-08-30T03:15:56;3.33;;;3.08;;
25535;SDS011;13431;51.352;6.412;2022-08-30T03:18:24;6.50;;;3.60;;
25535;SDS011;13431;51.352;6.412;2022-08-30T03:20:52;4.75;;;2.97;;
25535;SDS011;13431;51.352;6.412;2022-08-30T03:23:21;7.10;;;3.40;;
25535;SDS011;13431;51.352;6.412;2022-08-30T03:25:49;4.70;;;2.75;;
25535;SDS011;13431;51.352;6.412;2022-08-30T03:28:19;4.05;;;2.85;;
25535;SDS011;13431;51.352;6.412;2022-08-30T03:30:46;5.43;;;2.95;;
25535;SDS011;13431;51.352;6.412;2022-08-30T03:33:14;5.50;;;3.55;;
25535;SDS011;13431;51.352;6.412;2022-08-30T03:35:44;4.85;;;3.00;;
25535;SDS011;13431;51.352;6.412;2022-08-30T03:38:11;5.43;;;3.40;;
25535;SDS011;13431;51.352;6.412;2022-08-30T03:40:39;4.68;;;3.00;;
25535;SDS011;13431;51.352;6.412;2022-08-30T03:43:06;4.22;;;2.67;;
25535;SDS011;13431;51.352;6.412;2022-08-30T03:45:34;5.05;;;2.90;;
25535;SDS011;13431;51.352;6.412;2022-08-30T03:48:01;5.35;;;3.20;;
25535;SDS011;13431;51.352;6.412;2022-08-30T03:50:30;4.18;;;3.00;;
25535;SDS011;13431;51.352;6.412;2022-08-30T03:52:57;8.43;;;3.10;;
25535;SDS011;13431;51.352;6.412;2022-08-30T03:55:27;3.30;;;3.00;;
25535;SDS011;13431;51.352;6.412;2022-08-30T03:57:55;4.30;;;2.90;;
25535;SDS011;13431;51.352;6.412;2022-08-30T04:00:23;4.25;;;3.08;;
25535;SDS011;13431;51.352;6.412;2022-08-30T04:02:52;3.13;;;2.80;;
25535;SDS011;13431;51.352;6.412;2022-08-30T04:05:19;3.60;;;2.92;;
25535;SDS011;13431;51.352;6.412;2022-08-30T04:07:46;13.50;;;3.40;;
25535;SDS011;13431;51.352;6.412;2022-08-30T04:10:14;3.83;;;2.70;;
25535;SDS011;13431;51.352;6.412;2022-08-30T04:12:42;3.05;;;2.67;;
25535;SDS011;13431;51.352;6.412;2022-08-30T04:15:18;3.45;;;3.17;;
25535;SDS011;13431;51.352;6.412;2022-08-30T04:17:46;5.13;;;3.20;;
25535;SDS011;13431;51.352;6.412;2022-08-30T04:20:14;5.60;;;3.42;;
25535;SDS011;13431;51.352;6.412;2022-08-30T04:22:42;5.70;;;3.50;;
25535;SDS011;13431;51.352;6.412;2022-08-30T04:25:09;3.58;;;3.28;;
25535;SDS011;13431;51.352;6.412;2022-08-30T04:27:42;5.82;;;3.17;;
25535;SDS011;13431;51.352;6.412;2022-08-30T04:30:11;4.55;;;3.50;;
25535;SDS011;13431;51.352;6.412;2022-08-30T04:32:44;5.93;;;3.00;;
25535;SDS011;13431;51.352;6.412;2022-08-30T04:35:12;3.53;;;3.20;;
25535;SDS011;13431;51.352;6.412;2022-08-30T04:37:40;3.53;;;3.13;;
25535;SDS011;13431;51.352;6.412;2022-08-30T04:40:08;5.50;;;3.53;;
25535;SDS011;13431;51.352;6.412;2022-08-30T04:42:36;5.03;;;3.15;;
25535;SDS011;13431;51.352;6.412;2022-08-30T04:45:05;4.57;;;3.10;;
25535;SDS011;13431;51.352;6.412;2022-08-30T04:47:36;6.65;;;3.92;;
25535;SDS011;13431;51.352;6.412;2022-08-30T04:50:05;3.08;;;2.88;;
25535;SDS011;13431;51.352;6.412;2022-08-30T04:52:34;4.22;;;3.83;;
25535;SDS011;13431;51.352;6.412;2022-08-30T04:55:02;5.03;;;3.00;;
25535;SDS011;13431;51.352;6.412;2022-08-30T04:57:30;4.00;;;3.47;;
25535;SDS011;13431;51.352;6.412;2022-08-30T04:59:58;3.90;;;3.47;;
25535;SDS011;13431;51.352;6.412;2022-08-30T05:02:25;3.88;;;3.40;;
25535;SDS011;13431;51.352;6.412;2022-08-30T05:04:52;4.88;;;3.22;;
25535;SDS011;13431;51.352;6.412;2022-08-30T05:07:40;5.13;;;3.60;;
25535;SDS011;13431;51.352;6.412;2022-08-30T05:10:07;4.10;;;3.70;;
25535;SDS011;13431;51.352;6.412;2022-08-30T05:12:38;5.00;;;4.10;;
25535;SDS011;13431;51.352;6.412;2022-08-30T05:15:06;3.85;;;3.55;;
25535;SDS011;13431;51.352;6.412;2022-08-30T05:17:35;5.90;;;3.58;;
25535;SDS011;13431;51.352;6.412;2022-08-30T05:20:05;4.25;;;3.83;;
25535;SDS011;13431;51.352;6.412;2022-08-30T05:22:35;4.00;;;3.60;;
25535;SDS011;13431;51.352;6.412;2022-08-30T05:25:03;9.32;;;4.03;;
25535;SDS011;13431;51.352;6.412;2022-08-30T05:27:33;4.18;;;3.47;;
25535;SDS011;13431;51.352;6.412;2022-08-30T05:30:03;4.35;;;3.70;;
25535;SDS011;13431;51.352;6.412;2022-08-30T05:32:32;4.60;;;4.20;;
25535;SDS011;13431;51.352;6.412;2022-08-30T05:34:59;5.32;;;4.07;;
25535;SDS011;13431;51.352;6.412;2022-08-30T05:37:26;5.68;;;4.03;;
25535;SDS011;13431;51.352;6.412;2022-08-30T05:39:54;6.18;;;4.80;;
25535;SDS011;13431;51.352;6.412;2022-08-30T05:42:22;5.90;;;4.30;;
25535;SDS011;13431;51.352;6.412;2022-08-30T05:44:53;5.28;;;3.95;;
25535;SDS011;13431;51.352;6.412;2022-08-30T05:47:23;5.45;;;3.88;;
25535;SDS011;13431;51.352;6.412;2022-08-30T05:49:51;5.93;;;3.70;;
25535;SDS011;13431;51.352;6.412;2022-08-30T05:52:19;5.45;;;4.35;;
25535;SDS011;13431;51.352;6.412;2022-08-30T05:54:53;4.40;;;4.00;;
25535;SDS011;13431;51.352;6.412;2022-08-30T05:57:24;8.80;;;4.57;;
25535;SDS011;13431;51.352;6.412;2022-08-30T05:59:52;8.48;;;3.95;;
25535;SDS011;13431;51.352;6.412;2022-08-30T06:02:23;6.20;;;4.22;;
25535;SDS011;13431;51.352;6.412;2022-08-30T06:04:50;6.90;;;4.32;;
25535;SDS011;13431;51.352;6.412;2022-08-30T06:07:18;7.80;;;4.20;;
25535;SDS011;13431;51.352;6.412;2022-08-30T06:09:48;7.10;;;4.30;;
25535;SDS011;13431;51.352;6.412;2022-08-30T06:12:16;5.88;;;5.03;;
25535;SDS011;13431;51.352;6.412;2022-08-30T06:14:43;8.82;;;4.60;;
25535;SDS011;13431;51.352;6.412;2022-08-30T06:17:10;4.38;;;3.85;;
25535;SDS011;13431;51.352;6.412;2022-08-30T06:19:38;6.35;;;4.63;;
25535;SDS011;13431;51.352;6.412;2022-08-30T06:22:08;4.82;;;4.30;;
25535;SDS011;13431;51.352;6.412;2022-08-30T06:24:38;7.45;;;4.68;;
25535;SDS011;13431;51.352;6.412;2022-08-30T06:27:23;4.85;;;4.20;;
25535;SDS011;13431;51.352;6.412;2022-08-30T06:29:51;4.72;;;4.07;;
25535;SDS011;13431;51.352;6.412;2022-08-30T06:32:18;6.97;;;4.43;;
25535;SDS011;13431;51.352;6.412;2022-08-30T06:34:46;8.38;;;4.60;;
25535;SDS011;13431;51.352;6.412;2022-08-30T06:37:14;5.28;;;4.18;;
25535;SDS011;13431;51.352;6.412;2022-08-30T06:39:56;5.95;;;4.47;;
25535;SDS011;13431;51.352;6.412;2022-08-30T06:42:24;5.53;;;4.50;;
25535;SDS011;13431;51.352;6.412;2022-08-30T06:44:58;12.85;;;5.30;;
25535;SDS011;13431;51.352;6.412;2022-08-30T06:47:27;6.28;;;4.35;;
25535;SDS011;13431;51.352;6.412;2022-08-30T06:49:55;7.53;;;4.28;;
25535;SDS011;13431;51.352;6.412;2022-08-30T06:52:23;5.68;;;4.28;;
25535;SDS011;13431;51.352;6.412;2022-08-30T06:54:52;5.07;;;4.18;;
25535;SDS011;13431;51.352;6.412;2022-08-30T06:57:24;5.60;;;4.53;;
25535;SDS011;13431;51.352;6.412;2022-08-30T06:59:55;6.32;;;4.15;;
25535;SDS011;13431;51.352;6.412;2022-08-30T07:02:23;5.75;;;4.40;;
25535;SDS011;13431;51.352;6.412;2022-08-30T07:04:51;6.85;;;4.45;;
25535;SDS011;13431;51.352;6.412;2022-08-30T07:07:21;9.02;;;4.47;;
25535;SDS011;13431;51.352;6.412;2022-08-30T07:09:49;7.07;;;4.82;;
25535;SDS011;13431;51.352;6.412;2022-08-30T07:12:16;6.45;;;4.90;;
25535;SDS011;13431;51.352;6.412;2022-08-30T07:14:43;7.20;;;4.30;;
25535;SDS011;13431;51.352;6.412;2022-08-30T07:17:11;8.68;;;4.38;;
25535;SDS011;13431;51.352;6.412;2022-08-30T07:20:01;5.68;;;4.20;;
25535;SDS011;13431;51.352;6.412;2022-08-30T07:22:31;4.95;;;4.28;;
25535;SDS011;13431;51.352;6.412;2022-08-30T07:24:59;6.97;;;4.45;;
25535;SDS011;13431;51.352;6.412;2022-08-30T07:27:26;9.77;;;4.53;;
25535;SDS011;13431;51.352;6.412;2022-08-30T07:30:00;4.90;;;3.75;;
25535;SDS011;13431;51.352;6.412;2022-08-30T07:32:28;10.77;;;4.57;;
25535;SDS011;13431;51.352;6.412;2022-08-30T07:34:55;5.25;;;4.70;;
25535;SDS011;13431;51.352;6.412;2022-08-30T07:37:23;4.57;;;4.00;;
25535;SDS011;13431;51.352;6.412;2022-08-30T07:39:51;5.78;;;4.00;;
25535;SDS011;13431;51.352;6.412;2022-08-30T07:42:18;6.25;;;3.97;;
25535;SDS011;13431;51.352;6.412;2022-08-30T07:44:46;6.47;;;4.30;;
25535;SDS011;13431;51.352;6.412;2022-08-30T07:47:13;8.15;;;5.28;;
25535;SDS011;13431;51.352;6.412;2022-08-30T07:49:42;4.28;;;3.80;;
25535;SDS011;13431;51.352;6.412;2022-08-30T07:52:12;6.03;;;4.00;;
25535;SDS011;13431;51.352;6.412;2022-08-30T07:54:39;4.38;;;3.97;;
25535;SDS011;13431;51.352;6.412;2022-08-30T07:57:09;5.03;;;4.53;;
25535;SDS011;13431;51.352;6.412;2022-08-30T07:59:41;4.45;;;3.45;;
25535;SDS011;13431;51.352;6.412;2022-08-30T08:02:09;6.57;;;3.58;;
25535;SDS011;13431;51.352;6.412;2022-08-30T08:04:36;9.63;;;4.32;;
25535;SDS011;13431;51.352;6.412;2022-08-30T08:07:03;10.73;;;5.10;;
25535;SDS011;13431;51.352;6.412;2022-08-30T08:09:35;7.13;;;4.38;;
25535;SDS011;13431;51.352;6.412;2022-08-30T08:12:04;7.65;;;5.28;;
25535;SDS011;13431;51.352;6.412;2022-08-30T08:14:33;10.55;;;5.43;;
25535;SDS011;13431;51.352;6.412;2022-08-30T08:17:00;5.88;;;3.92;;
25535;SDS011;13431;51.352;6.412;2022-08-30T08:19:28;5.95;;;3.60;;
25535;SDS011;13431;51.352;6.412;2022-08-30T08:21:55;6.53;;;4.30;;
25535;SDS011;13431;51.352;6.412;2022-08-30T08:24:45;7.25;;;4.15;;
25535;SDS011;13431;51.352;6.412;2022-08-30T08:27:13;5.10;;;3.72;;
25535;SDS011;13431;51.352;6.412;2022-08-30T08:29:40;4.13;;;3.67;;
25535;SDS011;13431;51.352;6.412;2022-08-30T08:32:07;10.27;;;4.10;;
25535;SDS011;13431;51.352;6.412;2022-08-30T08:34:35;8.10;;;3.15;;
25535;SDS011;13431;51.352;6.412;2022-08-30T08:37:03;5.45;;;3.90;;
25535;SDS011;13431;51.352;6.412;2022-08-30T08:39:30;4.95;;;3.80;;
25535;SDS011;13431;51.352;6.412;2022-08-30T08:47:24;5.57;;;3.72;;
25535;SDS011;13431;51.352;6.412;2022-08-30T08:49:57;7.13;;;3.45;;
25535;SDS011;13431;51.352;6.412;2022-08-30T08:52:32;3.13;;;2.90;;
25535;SDS011;13431;51.352;6.412;2022-08-30T08:55:30;7.88;;;3.42;;
25535;SDS011;13431;51.352;6.412;2022-08-30T08:57:57;4.63;;;3.20;;
25535;SDS011;13431;51.352;6.412;2022-08-30T09:00:27;4.72;;;3.15;;
25535;SDS011;13431;51.352;6.412;2022-08-30T09:05:24;5.93;;;3.50;;
25535;SDS011;13431;51.352;6.412;2022-08-30T09:07:59;4.95;;;3.38;;
25535;SDS011;13431;51.352;6.412;2022-08-30T09:10:35;4.40;;;2.90;;
25535;SDS011;13431;51.352;6.412;2022-08-30T09:13:17;4.82;;;2.58;;
25535;SDS011;13431;51.352;6.412;2022-08-30T09:15:49;7.28;;;3.00;;
25535;SDS011;13431;51.352;6.412;2022-08-30T09:21:22;3.42;;;2.55;;
25535;SDS011;13431;51.352;6.412;2022-08-30T09:23:56;6.57;;;2.85;;
25535;SDS011;13431;51.352;6.412;2022-08-30T09:26:33;4.85;;;2.80;;
25535;SDS011;13431;51.352;6.412;2022-08-30T09:29:02;5.20;;;2.90;;
25535;SDS011;13431;51.352;6.412;2022-08-30T09:31:32;3.35;;;2.60;;
25535;SDS011;13431;51.352;6.412;2022-08-30T09:34:29;6.43;;;2.60;;
25535;SDS011;13431;51.352;6.412;2022-08-30T09:36:59;5.45;;;2.65;;
25535;SDS011;13431;51.352;6.412;2022-08-30T09:39:31;4.32;;;3.38;;
25535;SDS011;13431;51.352;6.412;2022-08-30T09:42:14;6.55;;;4.05;;
25535;SDS011;13431;51.352;6.412;2022-08-30T09:44:48;3.25;;;2.75;;
25535;SDS011;13431;51.352;6.412;2022-08-30T09:52:36;4.35;;;2.53;;
25535;SDS011;13431;51.352;6.412;2022-08-30T10:00:43;7.97;;;2.92;;
25535;SDS011;13431;51.352;6.412;2022-08-30T10:03:31;6.15;;;2.75;;
25535;SDS011;13431;51.352;6.412;2022-08-30T10:06:14;5.93;;;2.38;;
25535;SDS011;13431;51.352;6.412;2022-08-30T10:17:37;3.72;;;3.25;;
25535;SDS011;13431;51.352;6.412;2022-08-30T10:25:40;7.57;;;4.10;;
25535;SDS011;13431;51.352;6.412;2022-08-30T10:28:10;6.85;;;2.47;;
25535;SDS011;13431;51.352;6.412;2022-08-30T10:30:44;10.05;;;4.63;;
25535;SDS011;13431;51.352;6.412;2022-08-30T10:33:29;3.75;;;2.47;;
25535;SDS011;13431;51.352;6.412;2022-08-30T10:36:07;6.05;;;2.30;;
25535;SDS011;13431;51.352;6.412;2022-08-30T10:38:38;3.67;;;2.40;;
25535;SDS011;13431;51.352;6.412;2022-08-30T10:41:26;4.53;;;2.15;;
25535;SDS011;13431;51.352;6.412;2022-08-30T10:44:10;5.28;;;2.63;;
25535;SDS011;13431;51.352;6.412;2022-08-30T10:46:58;4.75;;;2.72;;
25535;SDS011;13431;51.352;6.412;2022-08-30T10:49:46;6.00;;;2.55;;
25535;SDS011;13431;51.352;6.412;2022-08-30T10:55:10;4.60;;;2.38;;
25535;SDS011;13431;51.352;6.412;2022-08-30T10:57:41;7.38;;;3.10;;
25535;SDS011;13431;51.352;6.412;2022-08-30T11:00:12;3.08;;;2.30;;
25535;SDS011;13431;51.352;6.412;2022-08-30T11:05:59;3.20;;;2.47;;
25535;SDS011;13431;51.352;6.412;2022-08-30T11:14:16;5.30;;;2.33;;
25535;SDS011;13431;51.352;6.412;2022-08-30T11:16:51;7.68;;;2.72;;
25535;SDS011;13431;51.352;6.412;2022-08-30T11:19:23;5.93;;;3.00;;
25535;SDS011;13431;51.352;6.412;2022-08-30T11:28:04;7.10;;;1.90;;
25535;SDS011;13431;51.352;6.412;2022-08-30T11:48:49;6.72;;;2.20;;
25535;SDS011;13431;51.352;6.412;2022-08-30T11:57:16;3.55;;;2.70;;
25535;SDS011;13431;51.352;6.412;2022-08-30T12:02:56;4.05;;;1.98;;
25535;SDS011;13431;51.352;6.412;2022-08-30T12:05:49;2.35;;;1.90;;
25535;SDS011;13431;51.352;6.412;2022-08-30T12:16:08;3.88;;;1.75;;
25535;SDS011;13431;51.352;6.412;2022-08-30T12:23:51;2.72;;;1.75;;
25535;SDS011;13431;51.352;6.412;2022-08-30T12:29:16;8.30;;;2.25;;
25535;SDS011;13431;51.352;6.412;2022-08-30T12:32:02;5.30;;;2.30;;
25535;SDS011;13431;51.352;6.412;2022-08-30T12:39:45;2.20;;;2.00;;
25535;SDS011;13431;51.352;6.412;2022-08-30T12:42:23;8.38;;;2.63;;
25535;SDS011;13431;51.352;6.412;2022-08-30T12:44:54;5.68;;;2.38;;
25535;SDS011;13431;51.352;6.412;2022-08-30T12:47:25;4.72;;;2.63;;
25535;SDS011;13431;51.352;6.412;2022-08-30T12:50:23;2.58;;;2.03;;
25535;SDS011;13431;51.352;6.412;2022-08-30T12:53:02;5.03;;;2.30;;
25535;SDS011;13431;51.352;6.412;2022-08-30T12:55:31;6.28;;;2.72;;
25535;SDS011;13431;51.352;6.412;2022-08-30T12:58:03;2.80;;;1.95;;
25535;SDS011;13431;51.352;6.412;2022-08-30T13:00:40;6.50;;;2.78;;
25535;SDS011;13431;51.352;6.412;2022-08-30T13:05:59;3.20;;;2.20;;
25535;SDS011;13431;51.352;6.412;2022-08-30T13:08:33;2.75;;;2.08;;
25535;SDS011;13431;51.352;6.412;2022-08-30T13:11:33;4.10;;;2.08;;
25535;SDS011;13431;51.352;6.412;2022-08-30T13:16:47;4.07;;;2.38;;
25535;SDS011;13431;51.352;6.412;2022-08-30T13:19:18;4.40;;;2.47;;
25535;SDS011;13431;51.352;6.412;2022-08-30T13:22:00;6.28;;;2.60;;
25535;SDS011;13431;51.352;6.412;2022-08-30T13:24:28;2.15;;;1.90;;
25535;SDS011;13431;51.352;6.412;2022-08-30T13:26:58;5.65;;;2.35;;
25535;SDS011;13431;51.352;6.412;2022-08-30T13:29:32;4.55;;;2.70;;
25535;SDS011;13431;51.352;6.412;2022-08-30T13:32:00;3.33;;;1.73;;
25535;SDS011;13431;51.352;6.412;2022-08-30T13:34:27;2.42;;;1.92;;
25535;SDS011;13431;51.352;6.412;2022-08-30T13:36:59;9.90;;;2.70;;
25535;SDS011;13431;51.352;6.412;2022-08-30T13:39:28;6.30;;;2.50;;
25535;SDS011;13431;51.352;6.412;2022-08-30T13:41:55;2.28;;;1.98;;
25535;SDS011;13431;51.352;6.412;2022-08-30T13:44:42;5.97;;;2.50;;
25535;SDS011;13431;51.352;6.412;2022-08-30T13:47:13;2.53;;;2.22;;
25535;SDS011;13431;51.352;6.412;2022-08-30T13:50:00;6.57;;;2.28;;
25535;SDS011;13431;51.352;6.412;2022-08-30T13:52:28;2.90;;;2.08;;
25535;SDS011;13431;51.352;6.412;2022-08-30T13:54:56;4.32;;;2.42;;
25535;SDS011;13431;51.352;6.412;2022-08-30T13:57:25;2.92;;;1.83;;
25535;SDS011;13431;51.352;6.412;2022-08-30T14:00:16;3.20;;;2.00;;
25535;SDS011;13431;51.352;6.412;2022-08-30T14:02:46;7.00;;;2.42;;
25535;SDS011;13431;51.352;6.412;2022-08-30T14:05:22;2.28;;;2.08;;
25535;SDS011;13431;51.352;6.412;2022-08-30T14:08:12;3.58;;;2.42;;
25535;SDS011;13431;51.352;6.412;2022-08-30T14:11:01;5.32;;;2.20;;
25535;SDS011;13431;51.352;6.412;2022-08-30T14:13:30;6.43;;;2.50;;
25535;SDS011;13431;51.352;6.412;2022-08-30T14:15:58;4.15;;;2.08;;
25535;SDS011;13431;51.352;6.412;2022-08-30T14:18:48;4.32;;;2.15;;
25535;SDS011;13431;51.352;6.412;2022-08-30T14:21:16;6.63;;;2.42;;
25535;SDS011;13431;51.352;6.412;2022-08-30T14:23:51;6.65;;;2.78;;
25535;SDS011;13431;51.352;6.412;2022-08-30T14:26:20;4.45;;;2.30;;
25535;SDS011;13431;51.352;6.412;2022-08-30T14:29:00;2.83;;;2.25;;
25535;SDS011;13431;51.352;6.412;2022-08-30T14:31:30;2.42;;;1.88;;
25535;SDS011;13431;51.352;6.412;2022-08-30T14:34:00;4.43;;;2.25;;
25535;SDS011;13431;51.352;6.412;2022-08-30T14:36:30;4.72;;;2.20;;
25535;SDS011;13431;51.352;6.412;2022-08-30T14:38:58;2.85;;;1.90;;
25535;SDS011;13431;51.352;6.412;2022-08-30T14:41:25;4.88;;;2.20;;
25535;SDS011;13431;51.352;6.412;2022-08-30T14:43:52;4.80;;;1.95;;
25535;SDS011;13431;51.352;6.412;2022-08-30T14:46:20;6.30;;;2.22;;
25535;SDS011;13431;51.352;6.412;2022-08-30T14:48:52;3.35;;;1.83;;
25535;SDS011;13431;51.352;6.412;2022-08-30T14:51:20;3.90;;;2.22;;
25535;SDS011;13431;51.352;6.412;2022-08-30T14:53:52;2.28;;;1.70;;
25535;SDS011;13431;51.352;6.412;2022-08-30T14:56:20;2.67;;;1.95;;
25535;SDS011;13431;51.352;6.412;2022-08-30T14:58:51;2.03;;;1.83;;
25535;SDS011;13431;51.352;6.412;2022-08-30T15:01:19;4.93;;;2.40;;
25535;SDS011;13431;51.352;6.412;2022-08-30T15:03:48;4.78;;;2.05;;
25535;SDS011;13431;51.352;6.412;2022-08-30T15:06:17;3.70;;;2.28;;
25535;SDS011;13431;51.352;6.412;2022-08-30T15:08:45;3.30;;;1.85;;
25535;SDS011;13431;51.352;6.412;2022-08-30T15:11:15;4.82;;;1.98;;
25535;SDS011;13431;51.352;6.412;2022-08-30T15:13:44;3.25;;;2.08;;
25535;SDS011;13431;51.352;6.412;2022-08-30T15:16:32;1.80;;;1.70;;
25535;SDS011;13431;51.352;6.412;2022-08-30T15:19:01;5.80;;;2.47;;
25535;SDS011;13431;51.352;6.412;2022-08-30T15:21:32;2.65;;;1.73;;
25535;SDS011;13431;51.352;6.412;2022-08-30T15:24:01;3.25;;;2.17;;
25535;SDS011;13431;51.352;6.412;2022-08-30T15:26:31;4.50;;;2.22;;
25535;SDS011;13431;51.352;6.412;2022-08-30T15:28:59;4.85;;;1.90;;
25535;SDS011;13431;51.352;6.412;2022-08-30T15:31:27;3.25;;;1.55;;
25535;SDS011;13431;51.352;6.412;2022-08-30T15:33:59;4.05;;;2.00;;
25535;SDS011;13431;51.352;6.412;2022-08-30T15:36:27;3.47;;;2.10;;
25535;SDS011;13431;51.352;6.412;2022-08-30T15:38:56;10.90;;;2.03;;
25535;SDS011;13431;51.352;6.412;2022-08-30T15:41:26;2.08;;;1.88;;
25535;SDS011;13431;51.352;6.412;2022-08-30T15:43:56;2.45;;;1.98;;
25535;SDS011;13431;51.352;6.412;2022-08-30T15:46:25;6.40;;;2.03;;
25535;SDS011;13431;51.352;6.412;2022-08-30T15:49:04;3.03;;;2.42;;
25535;SDS011;13431;51.352;6.412;2022-08-30T15:51:34;7.60;;;1.88;;
25535;SDS011;13431;51.352;6.412;2022-08-30T15:54:08;4.57;;;1.90;;
25535;SDS011;13431;51.352;6.412;2022-08-30T15:56:37;3.35;;;2.08;;
25535;SDS011;13431;51.352;6.412;2022-08-30T15:59:07;2.45;;;1.90;;
25535;SDS011;13431;51.352;6.412;2022-08-30T16:01:36;9.00;;;1.92;;
25535;SDS011;13431;51.352;6.412;2022-08-30T16:04:04;2.35;;;1.67;;
25535;SDS011;13431;51.352;6.412;2022-08-30T16:06:34;2.38;;;2.15;;
25535;SDS011;13431;51.352;6.412;2022-08-30T16:09:04;4.10;;;1.80;;
25535;SDS011;13431;51.352;6.412;2022-08-30T16:11:32;2.20;;;1.70;;
25535;SDS011;13431;51.352;6.412;2022-08-30T16:14:00;3.28;;;1.85;;
25535;SDS011;13431;51.352;6.412;2022-08-30T16:16:29;2.35;;;2.15;;
25535;SDS011;13431;51.352;6.412;2022-08-30T16:18:56;5.50;;;2.33;;
25535;SDS011;13431;51.352;6.412;2022-08-30T16:21:26;4.40;;;1.88;;
25535;SDS011;13431;51.352;6.412;2022-08-30T16:23:59;6.35;;;2.92;;
25535;SDS011;13431;51.352;6.412;2022-08-30T16:26:28;2.33;;;2.05;;
25535;SDS011;13431;51.352;6.412;2022-08-30T16:28:57;3.72;;;2.05;;
25535;SDS011;13431;51.352;6.412;2022-08-30T16:31:26;3.13;;;2.03;;
25535;SDS011;13431;51.352;6.412;2022-08-30T16:33:55;2.42;;;1.80;;
25535;SDS011;13431;51.352;6.412;2022-08-30T16:36:30;6.45;;;1.85;;
25535;SDS011;13431;51.352;6.412;2022-08-30T16:38:59;4.25;;;2.15;;
25535;SDS011;13431;51.352;6.412;2022-08-30T16:41:26;3.13;;;2.20;;
25535;SDS011;13431;51.352;6.412;2022-08-30T16:43:58;5.10;;;2.15;;
25535;SDS011;13431;51.352;6.412;2022-08-30T16:46:26;6.10;;;1.85;;
25535;SDS011;13431;51.352;6.412;2022-08-30T16:48:54;3.85;;;1.90;;
25535;SDS011;13431;51.352;6.412;2022-08-30T16:51:25;10.32;;;2.97;;
25535;SDS011;13431;51.352;6.412;2022-08-30T16:53:54;2.78;;;1.73;;
25535;SDS011;13431;51.352;6.412;2022-08-30T16:56:24;2.20;;;1.65;;
25535;SDS011;13431;51.352;6.412;2022-08-30T16:58:53;3.33;;;1.70;;